Latest Coastal Weather Observations for Williamtown

IDN60701

Issued at 4:51 am EDT Wednesday 29 March 2017 (issued every 10 minutes, with the page automatically refreshed every 10 minutes)

About coastal observations | Map of coastal stations | Coastal observations for NSW | Marine services | Other Formats
Station Details ID: 061078 Name: WILLIAMTOWN RAAF Lat: -32.79 Lon: 151.84 Height: 7.5 m
Data from the previous 72 hours. | See also: Recent months at Williamtown
Date/Time
EDT
Temp
°C
Wind Pressure Rain since
9am
mm
Weather Cloud Vis
km
Sea
Height
m
Swell
Dir  Spd
kts
Gust
kts
hPa Trend Height
m
Period
s
Dir
29/04:30am 22.9 SSE 4 5 1011.1 - 0.0 - Partly cloudy 7 - - - -
29/04:00am 22.9 SE 2 5 1011.3 - 0.0 - Partly cloudy 8 - - - -
29/03:30am 22.9 SSE 5 6 1011.3 - 0.0 - Cloudy 10 - - - -
29/03:00am 23.0 SSE 4 6 1011.6 F 0.0 - Cloudy 10 - - - -
29/02:36am 23.1 S 5 7 1011.9 - 0.0 - Cloudy 10 - - - -
29/02:30am 23.1 SSE 5 6 1012.0 - 0.0 - Cloudy 10 - - - -
29/02:03am 23.2 SSE 6 7 1012.3 - 0.0 - Partly cloudy 10 - - - -
29/02:00am 23.2 SSE 6 7 1012.3 - 0.0 - Partly cloudy 10 - - - -
29/01:30am 23.0 ESE 5 8 1012.5 - 0.0 - Partly cloudy 9 - - - -
29/01:00am 23.0 SSW 6 7 1012.7 - 0.0 - Cloudy 9 - - - -
29/12:30am 23.0 S 7 8 1012.8 - 0.0 - Cloudy 10 - - - -
29/12:00am 23.2 S 6 8 1013.1 F 0.0 - Cloudy 10 - - - -
 
Date/Time
EDT
Temp
°C
Wind Pressure Rain since
9am
mm
Weather Cloud Vis
km
Sea
Height
m
Swell
Dir  Spd
kts
Gust
kts
hPa Trend Height
m
Period
s
Dir
28/11:30pm 23.2 S 7 9 1013.1 - 0.0 - Cloudy 10 - - - -
28/11:01pm 23.3 S 5 6 1013.3 - 0.0 - Cloudy 10 - - - -
28/11:00pm 23.3 S 5 6 1013.3 - 0.0 - Cloudy 10 - - - -
28/10:30pm 23.3 S 6 7 1013.4 - 0.0 - Mostly clear 10 - - - -
28/10:00pm 23.3 S 5 7 1013.4 - 0.0 - Mostly clear 10 - - - -
28/09:30pm 23.3 S 6 8 1013.5 - 0.0 - Mostly clear 10 - - - -
28/09:00pm 23.2 S 6 8 1013.3 R 0.0 - Cloudy 10 - - - -
28/08:30pm 23.1 S 7 9 1012.9 - 0.0 - Partly cloudy 10 - - - -
28/08:00pm 23.0 S 6 8 1012.8 - 0.0 - Mostly cloudy 9 - - - -
28/07:30pm 22.8 S 6 7 1012.6 - 0.0 - Mostly cloudy 9 - - - -
28/07:16pm 22.8 S 6 7 1012.5 - 0.0 - Partly cloudy 10 - - - -
28/07:00pm 23.0 S 6 7 1012.3 - 0.0 - Mostly clear 10 - - - -
28/06:30pm 23.3 S 8 11 1012.1 - 0.0 - Mostly clear 10 - - - -
28/06:00pm 23.9 S 8 11 1011.7 S 0.0 - Partly cloudy 10 - - - -
28/05:30pm 24.1 SSE 9 11 1011.6 - 0.0 - Partly cloudy 10 - - - -
28/05:00pm 24.4 SSE 8 10 1011.5 - 0.0 - Mostly clear 10 - - - -
28/04:30pm 24.7 SSE 9 13 1011.5 - 0.0 - Partly cloudy 10 - - - -
28/04:00pm 24.9 SSE 11 15 1011.6 - 0.0 - Partly cloudy 10 - - - -
28/03:30pm 25.3 SSE 13 17 1011.8 - 0.0 - Mostly clear 10 - - - -
28/03:00pm 25.3 S 11 15 1011.9 F 0.0 - Mostly cloudy 10 - - - -
28/02:30pm 25.3 S 14 18 1012.0 - 0.0 - Mostly clear 10 - - - -
28/02:00pm 25.8 S 12 15 1012.0 - 0.0 - Mostly clear 10 - - - -
28/01:30pm 26.0 SSE 11 14 1012.3 - 0.0 - Partly cloudy 10 - - - -
28/01:00pm 25.8 SSE 10 13 1012.8 - 0.0 - Mostly cloudy 10 - - - -
28/12:30pm 25.2 S 9 12 1013.2 - 0.0 - Partly cloudy 10 - - - -
28/12:00pm 25.2 SSW 9 13 1013.5 S 0.0 - Cloudy 10 - - - -
28/11:52am 24.9 S 10 14 1013.6 - 0.0 - Mostly clear 10 - - - -
28/11:30am 24.9 S 11 14 1013.8 - 0.0 - Partly cloudy 10 - - - -
28/11:00am 24.4 SSW 11 16 1013.9 - 0.0 - Partly cloudy 10 - - - -
28/10:30am 24.2 SSW 11 14 1013.9 - 0.0 - Partly cloudy 10 - - - -
28/10:00am 23.9 SSW 11 15 1013.9 - 0.0 - Partly cloudy 10 - - - -
28/09:30am 23.4 SSW 10 15 1013.7 - 0.0 - Partly cloudy 10 - - - -
28/09:00am 23.0 SSW 11 14 1013.5 R 0.0 - Cloudy 10 - - - -
28/08:30am 22.9 SSW 12 16 1013.0 - 0.0 - Mostly clear 9 - - - -
28/08:00am 23.0 SSW 11 16 1012.6 - 0.0 - Mostly clear 9 - - - -
28/07:30am 22.7 S 11 17 1012.4 - 0.0 - Mostly clear 9 - - - -
28/07:00am 19.9 WSW 5 6 1011.9 - 0.0 - Mostly cloudy 10 - - - -
28/06:30am 19.4 W 3 15 1011.2 - 0.0 - - 10 - - - -
28/06:00am 19.9 N 4 5 1010.0 F 0.0 - - 10 - - - -
28/05:30am 19.7 WNW 4 5 1009.8 - 0.0 - - 10 - - - -
28/05:00am 19.5 NW 5 5 1009.5 - 0.0 - - 10 - - - -
28/04:30am 19.6 NW 3 4 1009.9 - 0.0 - - 10 - - - -
28/04:00am 20.0 NNW 2 3 1009.8 - 0.0 - - 10 - - - -
28/03:30am 20.3 N 5 7 1009.8 - 0.0 - - 10 - - - -
28/03:00am 20.3 N 2 5 1010.0 R 0.0 - - 10 - - - -
28/02:30am 20.4 NNE 5 6 1010.2 - 0.0 - - 10 - - - -
28/02:00am 20.6 NNE 4 6 1010.6 - 0.0 - - 10 - - - -
28/01:30am 20.6 N 2 4 1010.7 - 0.0 - - 10 - - - -
28/01:00am 20.8 N 4 6 1010.8 - 0.0 - - 10 - - - -
28/12:30am 21.1 N 4 5 1011.0 - 0.0 - - 10 - - - -
28/12:00am 21.4 NNE 5 6 1010.9 R 0.0 - - 10 - - - -
 
Date/Time
EDT
Temp
°C
Wind Pressure Rain since
9am
mm
Weather Cloud Vis
km
Sea
Height
m
Swell
Dir  Spd
kts
Gust
kts
hPa Trend Height
m
Period
s
Dir
27/11:30pm 21.7 NNE 5 7 1011.0 - 0.0 - - 10 - - - -
27/11:00pm 22.0 NNE 6 9 1011.1 - 0.0 - - 10 - - - -
27/10:42pm 22.1 NNE 7 9 1011.0 - 0.0 - - 10 - - - -
27/10:30pm 22.1 NE 7 9 1011.1 - 0.0 - - 10 - - - -
27/10:00pm 22.4 NNE 7 8 1011.5 - 0.0 - - 10 - - - -
27/09:30pm 22.6 NNE 9 14 1010.9 - 0.0 - - 10 - - - -
27/09:00pm 22.9 NE 8 13 1010.8 F 0.0 - - 10 - - - -
27/08:30pm 23.3 NE 8 13 1010.8 - 0.0 - - 10 - - - -
27/08:00pm 23.7 NE 8 12 1010.7 - 0.0 - - 10 - - - -
27/07:30pm 24.1 NE 9 15 1010.6 - 0.0 - - 10 - - - -
27/07:00pm 24.5 NE 8 11 1010.6 - 0.0 - - 10 - - - -
27/06:30pm 25.2 ENE 7 10 1010.8 - 0.0 - - 10 - - - -
27/06:00pm 25.9 ENE 9 14 1010.9 F 0.0 - - 10 - - - -
27/05:30pm 26.5 ENE 10 14 1011.2 - 0.0 - Mostly clear 10 - - - -
27/05:00pm 27.2 ENE 9 12 1011.2 - 0.0 - Mostly clear 10 - - - -
27/04:30pm 27.6 ENE 9 14 1011.3 - 0.0 - Mostly clear 10 - - - -
27/04:00pm 28.3 ENE 8 12 1011.6 - 0.0 - Mostly clear 10 - - - -
27/03:30pm 28.3 NE 7 11 1012.0 - 0.0 - Mostly clear 10 - - - -
27/03:00pm 28.8 NNE 6 10 1012.4 F 0.0 - Mostly clear 10 - - - -
27/02:30pm 27.8 W 5 8 1012.9 - 0.0 - Mostly clear 10 - - - -
27/02:00pm 27.7 NNE 7 14 1013.4 - 0.0 - Mostly clear 10 - - - -
27/01:30pm 27.8 ENE 5 8 1014.1 - 0.0 - Mostly clear 10 - - - -
27/01:00pm 27.0 NE 6 8 1014.5 - 0.0 - Partly cloudy 10 - - - -
27/12:30pm 27.2 NNE 8 14 1014.9 - 0.0 - Partly cloudy 10 - - - -
27/12:00pm 26.7 NE 9 13 1015.4 F 0.0 - Mostly clear 10 - - - -
27/11:30am 26.0 NNE 7 10 1015.8 - 0.0 - Mostly clear 10 - - - -
27/11:00am 25.6 N 6 8 1016.2 - 0.0 - Mostly clear 10 - - - -
27/10:30am 25.0 NNE 6 9 1016.7 - 0.0 - Mostly clear 10 - - - -
27/10:00am 24.2 N 7 10 1016.8 - 0.0 - Mostly clear 10 - - - -
27/09:30am 23.4 NE 6 8 1016.8 - 0.0 - Mostly clear 10 - - - -
27/09:00am 21.8 NE 5 7 1016.6 F 0.0 - Mostly clear 10 - - - -
27/08:30am 20.7 NE 3 5 1016.4 - 0.0 - Mostly clear 10 - - - -
27/08:00am 18.7 CALM 0 0 1016.4 - 0.0 - Mostly clear 10 - - - -
27/07:30am 16.1 CALM 0 0 1016.1 - 0.0 - Mostly clear 10 - - - -
27/07:00am 16.4 SSE 2 3 1016.0 - 0.0 - Mostly clear 10 - - - -
27/06:30am 15.9 SSE 2 4 1016.0 - 0.0 - - 10 - - - -
27/06:00am 16.0 CALM 0 0 1015.6 F 0.0 - - 10 - - - -
27/05:30am 15.8 CALM 0 0 1015.5 - 0.0 - - 10 - - - -
27/05:00am 16.1 CALM 0 0 1015.4 - 0.0 - - 10 - - - -
27/04:30am 16.9 CALM 0 0 1015.5 - 0.0 - - 10 - - - -
27/04:00am 16.9 CALM 0 0 1015.7 - 0.0 - - 10 - - - -
27/03:30am 16.1 CALM 0 0 1016.1 - 0.0 - - 10 - - - -
27/03:00am 17.0 CALM 0 0 1016.2 S 0.0 - - 10 - - - -
27/02:30am 16.8 CALM 0 0 1016.4 - 0.0 - - 10 - - - -
27/02:00am 17.7 CALM 0 0 1016.5 - 0.0 - - 10 - - - -
27/01:30am 17.4 CALM 0 0 1016.8 - 0.0 - - 10 - - - -
27/01:00am 17.9 CALM 0 0 1017.0 - 0.0 - - 10 - - - -
27/12:30am 18.1 CALM 0 0 1017.2 - 0.0 - - 10 - - - -
27/12:00am 18.8 CALM 0 0 1017.4 R 0.0 - - 10 - - - -
 
Date/Time
EDT
Temp
°C
Wind Pressure Rain since
9am
mm
Weather Cloud Vis
km
Sea
Height
m
Swell
Dir  Spd
kts
Gust
kts
hPa Trend Height
m
Period
s
Dir
26/11:30pm 19.8 ENE 3 4 1017.6 - 0.0 - - 10 - - - -
26/11:00pm 19.3 CALM 0 0 1017.7 - 0.0 - - 10 - - - -
26/10:30pm 20.4 NE 1 4 1017.7 - 0.0 - - 10 - - - -
26/10:00pm 20.6 ENE 4 6 1017.5 - 0.0 - - 10 - - - -
26/09:30pm 20.9 ENE 5 6 1017.3 - 0.0 - - 10 - - - -
26/09:00pm 21.3 ENE 6 7 1016.9 R 0.0 - - 10 - - - -
26/08:30pm 21.6 ENE 6 7 1016.7 - 0.0 - - 10 - - - -
26/08:00pm 22.0 ENE 6 9 1016.2 - 0.0 - - 10 - - - -
26/07:30pm 22.3 ENE 7 9 1015.7 - 0.0 - - 10 - - - -
26/07:00pm 22.9 E 8 11 1015.5 - 0.0 - - 10 - - - -
26/06:30pm 23.6 E 9 14 1015.1 - 0.0 - - 10 - - - -
26/06:00pm 24.3 E 9 13 1014.8 R 0.0 - - 10 - - - -
26/05:30pm 24.8 E 11 16 1014.3 - 0.0 - - 10 - - - -
26/05:00pm 25.2 E 10 14 1014.3 - 0.0 - - 10 - - - -
26/04:30pm 25.3 ESE 10 13 1014.1 - 0.0 - - 10 - - - -
26/04:00pm 25.8 E 9 13 1014.1 - 0.0 - - 10 - - - -
26/03:30pm 25.6 ESE 10 15 1013.9 - 0.0 - - 10 - - - -
26/03:00pm 25.4 ESE 10 14 1014.2 F 0.0 - - 10 - - - -
26/02:30pm 26.0 ESE 10 14 1014.2 - 0.0 - - 10 - - - -
26/02:00pm 25.8 SE 9 12 1014.5 - 0.0 - Partly cloudy 10 - - - -
26/01:30pm 25.7 SE 10 14 1014.9 - 0.0 - Partly cloudy 10 - - - -
26/01:00pm 25.8 SE 8 11 1015.3 - 0.0 - Partly cloudy 10 - - - -
26/12:30pm 25.7 SE 9 13 1015.6 - 0.0 - Partly cloudy 10 - - - -
26/12:00pm 25.6 SE 7 10 1015.8 R 0.0 - Partly cloudy 10 - - - -
26/11:30am 25.6 SSE 7 9 1015.8 - 0.0 - Partly cloudy 10 - - - -
26/11:00am 25.0 SSE 7 11 1015.9 - 0.0 - Partly cloudy 10 - - - -
26/10:32am 24.3 SSE 7 9 1015.8 - 0.0 - Partly cloudy 10 - - - -
26/10:30am 24.2 SE 7 9 1015.8 - 0.0 - Partly cloudy 10 - - - -
26/10:19am 24.5 S 5 8 1015.7 - 0.0 - Partly cloudy 10 - - - -
26/10:00am 24.1 S 5 7 1015.8 - 0.0 - Partly cloudy 10 - - - -
26/09:30am 23.2 SW 5 7 1015.7 - 0.0 - Partly cloudy 10 - - - -
26/09:00am 21.9 WSW 6 7 1015.4 R 0.0 - Mostly clear 10 - - - -
26/08:47am 21.1 WSW 6 7 1015.4 - 0.0 - Partly cloudy 10 - - - -
26/08:30am 20.6 WSW 5 6 1015.1 - 0.0 - Partly cloudy 10 - - - -
26/08:00am 20.2 W 5 5 1014.6 - 0.0 - Partly cloudy 10 - - - -
26/07:30am 19.5 WNW 5 6 1014.6 - 0.0 - Cloudy 10 - - - -
26/07:14am 19.3 NW 6 7 1014.2 - 0.0 - Partly cloudy 10 - - - -
26/07:00am 19.0 WSW 5 5 1014.0 - 0.0 - Partly cloudy 10 - - - -
26/06:30am 19.0 WSW 2 4 1013.5 - 0.0 - Partly cloudy 10 - - - -
26/06:00am 18.8 WSW 4 4 1013.3 R 0.0 - - 10 - - - -
26/05:30am 19.0 WSW 4 5 1013.1 - 0.0 - - 10 - - - -
26/05:00am 19.3 WSW 1 4 1013.0 - 0.0 - - 10 - - - -

Other Formats:

Comma delimited format used in spreadsheet applications
http://www.bom.gov.au/fwo/IDN60701/IDN60701.94776.axf

JavaScript Object Notation format (JSON) in row-major order
http://www.bom.gov.au/fwo/IDN60701/IDN60701.94776.json